sensor_id;sensor_type;location;lat;lon;timestamp;P1;durP1;ratioP1;P2;durP2;ratioP2
76725;SDS011;65651;53.154;17.916;2024-01-11T00:01:22;24.50;;;8.60;;
76725;SDS011;65651;53.154;17.916;2024-01-11T00:03:49;17.80;;;6.90;;
76725;SDS011;65651;53.154;17.916;2024-01-11T00:06:15;25.70;;;7.10;;
76725;SDS011;65651;53.154;17.916;2024-01-11T00:08:45;26.60;;;9.00;;
76725;SDS011;65651;53.154;17.916;2024-01-11T00:11:11;17.10;;;6.40;;
76725;SDS011;65651;53.154;17.916;2024-01-11T00:13:38;21.50;;;8.10;;
76725;SDS011;65651;53.154;17.916;2024-01-11T00:16:05;26.90;;;8.00;;
76725;SDS011;65651;53.154;17.916;2024-01-11T00:18:31;29.80;;;9.10;;
76725;SDS011;65651;53.154;17.916;2024-01-11T00:20:58;21.40;;;7.80;;
76725;SDS011;65651;53.154;17.916;2024-01-11T00:23:25;25.60;;;7.80;;
76725;SDS011;65651;53.154;17.916;2024-01-11T00:25:51;24.00;;;7.40;;
76725;SDS011;65651;53.154;17.916;2024-01-11T00:28:18;27.60;;;8.00;;
76725;SDS011;65651;53.154;17.916;2024-01-11T00:30:45;18.20;;;5.80;;
76725;SDS011;65651;53.154;17.916;2024-01-11T00:33:11;27.10;;;8.90;;
76725;SDS011;65651;53.154;17.916;2024-01-11T00:35:38;22.80;;;7.40;;
76725;SDS011;65651;53.154;17.916;2024-01-11T00:38:04;20.00;;;6.90;;
76725;SDS011;65651;53.154;17.916;2024-01-11T00:40:32;21.10;;;7.60;;
76725;SDS011;65651;53.154;17.916;2024-01-11T00:42:59;22.80;;;9.40;;
76725;SDS011;65651;53.154;17.916;2024-01-11T00:45:25;18.70;;;6.60;;
76725;SDS011;65651;53.154;17.916;2024-01-11T00:47:52;25.70;;;8.60;;
76725;SDS011;65651;53.154;17.916;2024-01-11T00:50:18;24.70;;;7.50;;
76725;SDS011;65651;53.154;17.916;2024-01-11T00:52:45;24.40;;;7.40;;
76725;SDS011;65651;53.154;17.916;2024-01-11T00:55:12;25.80;;;9.20;;
76725;SDS011;65651;53.154;17.916;2024-01-11T00:57:39;21.50;;;8.30;;
76725;SDS011;65651;53.154;17.916;2024-01-11T01:00:06;29.50;;;7.60;;
76725;SDS011;65651;53.154;17.916;2024-01-11T01:02:33;15.40;;;5.60;;
76725;SDS011;65651;53.154;17.916;2024-01-11T01:04:59;37.40;;;10.40;;
76725;SDS011;65651;53.154;17.916;2024-01-11T01:07:26;30.10;;;10.40;;
76725;SDS011;65651;53.154;17.916;2024-01-11T01:09:52;26.80;;;8.50;;
76725;SDS011;65651;53.154;17.916;2024-01-11T01:12:19;21.50;;;6.10;;
76725;SDS011;65651;53.154;17.916;2024-01-11T01:14:45;33.20;;;9.90;;
76725;SDS011;65651;53.154;17.916;2024-01-11T01:17:12;38.70;;;10.00;;
76725;SDS011;65651;53.154;17.916;2024-01-11T01:19:39;30.40;;;10.20;;
76725;SDS011;65651;53.154;17.916;2024-01-11T01:22:06;34.70;;;10.20;;
76725;SDS011;65651;53.154;17.916;2024-01-11T01:24:32;34.30;;;12.60;;
76725;SDS011;65651;53.154;17.916;2024-01-11T01:26:59;23.30;;;7.30;;
76725;SDS011;65651;53.154;17.916;2024-01-11T01:29:26;37.60;;;12.40;;
76725;SDS011;65651;53.154;17.916;2024-01-11T01:31:56;24.90;;;7.70;;
76725;SDS011;65651;53.154;17.916;2024-01-11T01:34:22;24.80;;;7.90;;
76725;SDS011;65651;53.154;17.916;2024-01-11T01:36:49;40.80;;;12.70;;
76725;SDS011;65651;53.154;17.916;2024-01-11T01:39:18;41.20;;;13.30;;
76725;SDS011;65651;53.154;17.916;2024-01-11T01:41:44;27.80;;;11.60;;
76725;SDS011;65651;53.154;17.916;2024-01-11T01:44:11;43.00;;;13.70;;
76725;SDS011;65651;53.154;17.916;2024-01-11T01:46:38;36.80;;;11.90;;
76725;SDS011;65651;53.154;17.916;2024-01-11T01:49:06;41.60;;;13.30;;
76725;SDS011;65651;53.154;17.916;2024-01-11T01:51:33;45.00;;;15.30;;
76725;SDS011;65651;53.154;17.916;2024-01-11T01:54:01;34.80;;;12.60;;
76725;SDS011;65651;53.154;17.916;2024-01-11T01:56:29;36.20;;;13.10;;
76725;SDS011;65651;53.154;17.916;2024-01-11T01:58:57;31.60;;;10.30;;
76725;SDS011;65651;53.154;17.916;2024-01-11T02:01:27;29.70;;;10.20;;
76725;SDS011;65651;53.154;17.916;2024-01-11T02:03:54;29.30;;;9.70;;
76725;SDS011;65651;53.154;17.916;2024-01-11T02:06:22;27.80;;;9.30;;
76725;SDS011;65651;53.154;17.916;2024-01-11T02:08:55;28.30;;;8.90;;
76725;SDS011;65651;53.154;17.916;2024-01-11T02:11:23;23.60;;;6.60;;
76725;SDS011;65651;53.154;17.916;2024-01-11T02:13:51;26.50;;;9.10;;
76725;SDS011;65651;53.154;17.916;2024-01-11T02:16:18;28.00;;;8.80;;
76725;SDS011;65651;53.154;17.916;2024-01-11T02:18:44;28.70;;;8.70;;
76725;SDS011;65651;53.154;17.916;2024-01-11T02:21:11;22.40;;;7.70;;
76725;SDS011;65651;53.154;17.916;2024-01-11T02:26:30;16.60;;;6.20;;
76725;SDS011;65651;53.154;17.916;2024-01-11T02:28:56;14.00;;;4.80;;
76725;SDS011;65651;53.154;17.916;2024-01-11T02:31:24;15.50;;;5.60;;
76725;SDS011;65651;53.154;17.916;2024-01-11T02:33:54;11.70;;;5.00;;
76725;SDS011;65651;53.154;17.916;2024-01-11T02:36:21;27.20;;;9.30;;
76725;SDS011;65651;53.154;17.916;2024-01-11T02:38:48;24.20;;;9.30;;
76725;SDS011;65651;53.154;17.916;2024-01-11T02:41:16;23.40;;;8.80;;
76725;SDS011;65651;53.154;17.916;2024-01-11T02:43:48;27.10;;;9.50;;
76725;SDS011;65651;53.154;17.916;2024-01-11T02:46:15;24.60;;;8.20;;
76725;SDS011;65651;53.154;17.916;2024-01-11T02:48:43;21.90;;;7.60;;
76725;SDS011;65651;53.154;17.916;2024-01-11T02:51:10;23.00;;;8.20;;
76725;SDS011;65651;53.154;17.916;2024-01-11T02:53:36;22.90;;;7.20;;
76725;SDS011;65651;53.154;17.916;2024-01-11T02:56:03;19.70;;;7.40;;
76725;SDS011;65651;53.154;17.916;2024-01-11T02:58:30;20.20;;;7.30;;
76725;SDS011;65651;53.154;17.916;2024-01-11T03:00:56;23.60;;;8.30;;
76725;SDS011;65651;53.154;17.916;2024-01-11T03:03:23;16.80;;;7.00;;
76725;SDS011;65651;53.154;17.916;2024-01-11T03:05:50;20.30;;;6.40;;
76725;SDS011;65651;53.154;17.916;2024-01-11T03:08:16;17.00;;;6.60;;
76725;SDS011;65651;53.154;17.916;2024-01-11T03:10:43;12.00;;;4.70;;
76725;SDS011;65651;53.154;17.916;2024-01-11T03:13:09;18.80;;;7.50;;
76725;SDS011;65651;53.154;17.916;2024-01-11T03:15:36;16.50;;;6.20;;
76725;SDS011;65651;53.154;17.916;2024-01-11T03:18:05;20.50;;;7.10;;
76725;SDS011;65651;53.154;17.916;2024-01-11T03:20:31;12.10;;;4.40;;
76725;SDS011;65651;53.154;17.916;2024-01-11T03:23:01;15.80;;;6.00;;
76725;SDS011;65651;53.154;17.916;2024-01-11T03:25:29;23.40;;;9.00;;
76725;SDS011;65651;53.154;17.916;2024-01-11T03:27:58;19.70;;;7.50;;
76725;SDS011;65651;53.154;17.916;2024-01-11T03:30:25;25.10;;;9.00;;
76725;SDS011;65651;53.154;17.916;2024-01-11T03:32:53;16.00;;;6.70;;
76725;SDS011;65651;53.154;17.916;2024-01-11T03:35:20;22.40;;;9.30;;
76725;SDS011;65651;53.154;17.916;2024-01-11T03:37:46;27.80;;;8.70;;
76725;SDS011;65651;53.154;17.916;2024-01-11T03:40:13;24.30;;;8.50;;
76725;SDS011;65651;53.154;17.916;2024-01-11T03:42:41;20.90;;;9.10;;
76725;SDS011;65651;53.154;17.916;2024-01-11T03:45:08;26.60;;;9.70;;
76725;SDS011;65651;53.154;17.916;2024-01-11T03:47:35;22.00;;;9.20;;
76725;SDS011;65651;53.154;17.916;2024-01-11T03:50:02;16.50;;;7.20;;
76725;SDS011;65651;53.154;17.916;2024-01-11T03:52:30;19.10;;;7.80;;
76725;SDS011;65651;53.154;17.916;2024-01-11T03:54:59;19.60;;;8.60;;
76725;SDS011;65651;53.154;17.916;2024-01-11T03:57:28;15.90;;;6.60;;
76725;SDS011;65651;53.154;17.916;2024-01-11T03:59:54;19.30;;;7.90;;
76725;SDS011;65651;53.154;17.916;2024-01-11T04:02:21;22.30;;;8.40;;
76725;SDS011;65651;53.154;17.916;2024-01-11T04:04:48;25.50;;;10.20;;
76725;SDS011;65651;53.154;17.916;2024-01-11T04:07:14;18.40;;;8.20;;
76725;SDS011;65651;53.154;17.916;2024-01-11T04:09:41;18.10;;;8.00;;
76725;SDS011;65651;53.154;17.916;2024-01-11T04:12:08;14.90;;;5.60;;
76725;SDS011;65651;53.154;17.916;2024-01-11T04:14:38;26.10;;;10.60;;
76725;SDS011;65651;53.154;17.916;2024-01-11T04:17:11;15.30;;;6.70;;
76725;SDS011;65651;53.154;17.916;2024-01-11T04:19:37;23.30;;;9.60;;
76725;SDS011;65651;53.154;17.916;2024-01-11T04:22:05;28.30;;;11.90;;
76725;SDS011;65651;53.154;17.916;2024-01-11T04:24:33;26.10;;;10.60;;
76725;SDS011;65651;53.154;17.916;2024-01-11T04:26:59;22.90;;;10.60;;
76725;SDS011;65651;53.154;17.916;2024-01-11T04:29:26;27.30;;;11.10;;
76725;SDS011;65651;53.154;17.916;2024-01-11T04:31:53;15.80;;;7.00;;
76725;SDS011;65651;53.154;17.916;2024-01-11T04:34:20;22.40;;;8.20;;
76725;SDS011;65651;53.154;17.916;2024-01-11T04:36:47;23.00;;;10.80;;
76725;SDS011;65651;53.154;17.916;2024-01-11T04:39:13;23.80;;;10.10;;
76725;SDS011;65651;53.154;17.916;2024-01-11T04:41:40;14.30;;;5.40;;
76725;SDS011;65651;53.154;17.916;2024-01-11T04:44:09;19.80;;;10.50;;
76725;SDS011;65651;53.154;17.916;2024-01-11T04:46:36;14.20;;;7.10;;
76725;SDS011;65651;53.154;17.916;2024-01-11T04:49:02;21.70;;;9.70;;
76725;SDS011;65651;53.154;17.916;2024-01-11T04:51:29;26.40;;;10.90;;
76725;SDS011;65651;53.154;17.916;2024-01-11T04:53:55;24.90;;;11.80;;
76725;SDS011;65651;53.154;17.916;2024-01-11T04:56:22;26.70;;;11.40;;
76725;SDS011;65651;53.154;17.916;2024-01-11T04:58:49;26.70;;;11.10;;
76725;SDS011;65651;53.154;17.916;2024-01-11T05:01:16;20.90;;;9.10;;
76725;SDS011;65651;53.154;17.916;2024-01-11T05:03:44;19.90;;;8.30;;
76725;SDS011;65651;53.154;17.916;2024-01-11T05:06:15;19.20;;;10.10;;
76725;SDS011;65651;53.154;17.916;2024-01-11T05:08:49;24.40;;;10.80;;
76725;SDS011;65651;53.154;17.916;2024-01-11T05:11:27;24.30;;;10.70;;
76725;SDS011;65651;53.154;17.916;2024-01-11T05:13:53;26.10;;;8.40;;
76725;SDS011;65651;53.154;17.916;2024-01-11T05:16:24;21.80;;;10.40;;
76725;SDS011;65651;53.154;17.916;2024-01-11T05:18:52;24.60;;;10.90;;
76725;SDS011;65651;53.154;17.916;2024-01-11T05:21:21;23.30;;;11.10;;
76725;SDS011;65651;53.154;17.916;2024-01-11T05:23:49;19.70;;;9.50;;
76725;SDS011;65651;53.154;17.916;2024-01-11T05:26:17;20.10;;;8.80;;
76725;SDS011;65651;53.154;17.916;2024-01-11T05:28:44;25.60;;;11.10;;
76725;SDS011;65651;53.154;17.916;2024-01-11T05:31:12;21.20;;;10.10;;
76725;SDS011;65651;53.154;17.916;2024-01-11T05:33:41;26.50;;;11.60;;
76725;SDS011;65651;53.154;17.916;2024-01-11T05:36:08;24.00;;;10.10;;
76725;SDS011;65651;53.154;17.916;2024-01-11T05:38:35;22.40;;;10.00;;
76725;SDS011;65651;53.154;17.916;2024-01-11T05:41:02;28.90;;;11.30;;
76725;SDS011;65651;53.154;17.916;2024-01-11T05:43:29;27.20;;;11.20;;
76725;SDS011;65651;53.154;17.916;2024-01-11T05:45:56;29.40;;;11.00;;
76725;SDS011;65651;53.154;17.916;2024-01-11T05:48:23;45.80;;;14.00;;
76725;SDS011;65651;53.154;17.916;2024-01-11T05:50:50;32.00;;;11.20;;
76725;SDS011;65651;53.154;17.916;2024-01-11T05:53:17;21.60;;;10.60;;
76725;SDS011;65651;53.154;17.916;2024-01-11T05:55:46;30.60;;;11.40;;
76725;SDS011;65651;53.154;17.916;2024-01-11T05:58:14;38.70;;;13.00;;
76725;SDS011;65651;53.154;17.916;2024-01-11T06:00:40;47.40;;;16.20;;
76725;SDS011;65651;53.154;17.916;2024-01-11T06:03:08;43.30;;;15.70;;
76725;SDS011;65651;53.154;17.916;2024-01-11T06:05:34;54.00;;;16.60;;
76725;SDS011;65651;53.154;17.916;2024-01-11T06:08:02;51.60;;;17.80;;
76725;SDS011;65651;53.154;17.916;2024-01-11T06:10:29;36.00;;;14.90;;
76725;SDS011;65651;53.154;17.916;2024-01-11T06:12:57;25.40;;;11.50;;
76725;SDS011;65651;53.154;17.916;2024-01-11T06:15:23;23.60;;;11.10;;
76725;SDS011;65651;53.154;17.916;2024-01-11T06:17:50;21.40;;;9.20;;
76725;SDS011;65651;53.154;17.916;2024-01-11T06:20:17;17.10;;;8.50;;
76725;SDS011;65651;53.154;17.916;2024-01-11T06:22:43;22.20;;;9.60;;
76725;SDS011;65651;53.154;17.916;2024-01-11T06:25:10;14.60;;;7.70;;
76725;SDS011;65651;53.154;17.916;2024-01-11T06:27:36;18.80;;;9.00;;
76725;SDS011;65651;53.154;17.916;2024-01-11T06:30:03;18.40;;;10.30;;
76725;SDS011;65651;53.154;17.916;2024-01-11T06:32:33;23.00;;;10.20;;
76725;SDS011;65651;53.154;17.916;2024-01-11T06:35:00;22.10;;;10.60;;
76725;SDS011;65651;53.154;17.916;2024-01-11T06:37:28;14.30;;;7.60;;
76725;SDS011;65651;53.154;17.916;2024-01-11T06:39:55;17.30;;;8.50;;
76725;SDS011;65651;53.154;17.916;2024-01-11T06:42:22;24.30;;;9.90;;
76725;SDS011;65651;53.154;17.916;2024-01-11T06:44:48;23.40;;;12.10;;
76725;SDS011;65651;53.154;17.916;2024-01-11T06:47:15;23.00;;;10.50;;
76725;SDS011;65651;53.154;17.916;2024-01-11T06:49:42;19.60;;;10.10;;
76725;SDS011;65651;53.154;17.916;2024-01-11T06:52:08;18.30;;;10.00;;
76725;SDS011;65651;53.154;17.916;2024-01-11T06:54:35;17.70;;;10.40;;
76725;SDS011;65651;53.154;17.916;2024-01-11T06:57:02;18.50;;;10.90;;
76725;SDS011;65651;53.154;17.916;2024-01-11T06:59:29;26.90;;;14.90;;
76725;SDS011;65651;53.154;17.916;2024-01-11T07:01:56;25.00;;;14.00;;
76725;SDS011;65651;53.154;17.916;2024-01-11T07:04:22;17.80;;;9.60;;
76725;SDS011;65651;53.154;17.916;2024-01-11T07:06:49;19.70;;;11.00;;
76725;SDS011;65651;53.154;17.916;2024-01-11T07:09:15;19.00;;;10.90;;
76725;SDS011;65651;53.154;17.916;2024-01-11T07:11:43;16.30;;;9.80;;
76725;SDS011;65651;53.154;17.916;2024-01-11T07:14:10;14.80;;;8.50;;
76725;SDS011;65651;53.154;17.916;2024-01-11T07:16:37;18.30;;;8.70;;
76725;SDS011;65651;53.154;17.916;2024-01-11T07:19:03;16.50;;;9.00;;
76725;SDS011;65651;53.154;17.916;2024-01-11T07:21:33;18.70;;;10.20;;
76725;SDS011;65651;53.154;17.916;2024-01-11T07:23:59;30.90;;;14.10;;
76725;SDS011;65651;53.154;17.916;2024-01-11T07:26:26;29.40;;;12.00;;
76725;SDS011;65651;53.154;17.916;2024-01-11T07:28:54;18.90;;;9.70;;
76725;SDS011;65651;53.154;17.916;2024-01-11T07:31:23;19.30;;;8.90;;
76725;SDS011;65651;53.154;17.916;2024-01-11T07:33:50;17.30;;;9.40;;
76725;SDS011;65651;53.154;17.916;2024-01-11T07:36:20;35.40;;;13.80;;
76725;SDS011;65651;53.154;17.916;2024-01-11T07:38:47;28.00;;;12.20;;
76725;SDS011;65651;53.154;17.916;2024-01-11T07:41:16;26.50;;;11.80;;
76725;SDS011;65651;53.154;17.916;2024-01-11T07:43:43;55.40;;;19.10;;
76725;SDS011;65651;53.154;17.916;2024-01-11T07:46:10;43.10;;;16.40;;
76725;SDS011;65651;53.154;17.916;2024-01-11T07:48:37;38.40;;;13.90;;
76725;SDS011;65651;53.154;17.916;2024-01-11T07:51:04;30.70;;;13.80;;
76725;SDS011;65651;53.154;17.916;2024-01-11T07:53:30;29.30;;;14.10;;
76725;SDS011;65651;53.154;17.916;2024-01-11T07:55:57;27.10;;;12.80;;
76725;SDS011;65651;53.154;17.916;2024-01-11T07:58:24;24.00;;;12.00;;
76725;SDS011;65651;53.154;17.916;2024-01-11T08:00:51;34.00;;;12.60;;
76725;SDS011;65651;53.154;17.916;2024-01-11T08:03:18;27.90;;;11.30;;
76725;SDS011;65651;53.154;17.916;2024-01-11T08:05:44;23.90;;;11.40;;
76725;SDS011;65651;53.154;17.916;2024-01-11T08:08:11;11.90;;;7.10;;
76725;SDS011;65651;53.154;17.916;2024-01-11T08:10:38;21.80;;;11.20;;
76725;SDS011;65651;53.154;17.916;2024-01-11T08:13:04;21.40;;;10.90;;
76725;SDS011;65651;53.154;17.916;2024-01-11T08:15:31;17.20;;;9.80;;
76725;SDS011;65651;53.154;17.916;2024-01-11T08:17:57;21.70;;;11.30;;
76725;SDS011;65651;53.154;17.916;2024-01-11T08:20:24;23.30;;;12.10;;
76725;SDS011;65651;53.154;17.916;2024-01-11T08:22:51;14.30;;;8.60;;
76725;SDS011;65651;53.154;17.916;2024-01-11T08:25:18;15.50;;;7.70;;
76725;SDS011;65651;53.154;17.916;2024-01-11T08:27:45;22.80;;;12.90;;
76725;SDS011;65651;53.154;17.916;2024-01-11T08:30:12;20.00;;;11.40;;
76725;SDS011;65651;53.154;17.916;2024-01-11T08:32:39;21.90;;;11.10;;
76725;SDS011;65651;53.154;17.916;2024-01-11T08:35:08;37.40;;;15.10;;
76725;SDS011;65651;53.154;17.916;2024-01-11T08:37:38;26.70;;;12.80;;
76725;SDS011;65651;53.154;17.916;2024-01-11T08:40:05;23.40;;;11.60;;
76725;SDS011;65651;53.154;17.916;2024-01-11T08:42:33;20.40;;;12.10;;
76725;SDS011;65651;53.154;17.916;2024-01-11T08:44:59;21.80;;;11.60;;
76725;SDS011;65651;53.154;17.916;2024-01-11T08:47:33;23.40;;;12.20;;
76725;SDS011;65651;53.154;17.916;2024-01-11T08:50:01;21.50;;;11.30;;
76725;SDS011;65651;53.154;17.916;2024-01-11T08:52:32;17.00;;;10.30;;
76725;SDS011;65651;53.154;17.916;2024-01-11T08:54:59;16.30;;;10.10;;
76725;SDS011;65651;53.154;17.916;2024-01-11T08:57:26;19.50;;;11.20;;
76725;SDS011;65651;53.154;17.916;2024-01-11T08:59:53;23.40;;;12.10;;
76725;SDS011;65651;53.154;17.916;2024-01-11T09:02:21;22.00;;;11.90;;
76725;SDS011;65651;53.154;17.916;2024-01-11T09:04:49;25.00;;;13.50;;
76725;SDS011;65651;53.154;17.916;2024-01-11T09:07:16;20.40;;;12.30;;
76725;SDS011;65651;53.154;17.916;2024-01-11T09:09:43;23.60;;;12.60;;
76725;SDS011;65651;53.154;17.916;2024-01-11T09:12:10;27.80;;;13.50;;
76725;SDS011;65651;53.154;17.916;2024-01-11T09:14:36;22.70;;;12.70;;
76725;SDS011;65651;53.154;17.916;2024-01-11T09:17:03;19.00;;;12.10;;
76725;SDS011;65651;53.154;17.916;2024-01-11T09:19:32;25.00;;;13.90;;
76725;SDS011;65651;53.154;17.916;2024-01-11T09:22:06;23.90;;;12.20;;
76725;SDS011;65651;53.154;17.916;2024-01-11T09:24:36;17.50;;;10.40;;
76725;SDS011;65651;53.154;17.916;2024-01-11T09:27:03;20.40;;;11.40;;
76725;SDS011;65651;53.154;17.916;2024-01-11T09:29:30;22.10;;;12.40;;
76725;SDS011;65651;53.154;17.916;2024-01-11T09:31:58;27.60;;;14.00;;
76725;SDS011;65651;53.154;17.916;2024-01-11T09:34:25;25.10;;;13.60;;
76725;SDS011;65651;53.154;17.916;2024-01-11T09:36:53;28.40;;;12.90;;
76725;SDS011;65651;53.154;17.916;2024-01-11T09:39:19;24.40;;;12.90;;
76725;SDS011;65651;53.154;17.916;2024-01-11T09:41:50;22.60;;;13.10;;
76725;SDS011;65651;53.154;17.916;2024-01-11T09:44:23;27.40;;;13.90;;
76725;SDS011;65651;53.154;17.916;2024-01-11T09:46:52;15.80;;;8.00;;
76725;SDS011;65651;53.154;17.916;2024-01-11T09:49:21;23.40;;;11.80;;
76725;SDS011;65651;53.154;17.916;2024-01-11T09:51:49;24.30;;;13.80;;
76725;SDS011;65651;53.154;17.916;2024-01-11T09:54:17;25.90;;;14.10;;
76725;SDS011;65651;53.154;17.916;2024-01-11T09:56:47;23.40;;;11.40;;
76725;SDS011;65651;53.154;17.916;2024-01-11T09:59:20;22.80;;;12.50;;
76725;SDS011;65651;53.154;17.916;2024-01-11T10:01:51;20.40;;;10.80;;
76725;SDS011;65651;53.154;17.916;2024-01-11T10:04:18;18.40;;;11.00;;
76725;SDS011;65651;53.154;17.916;2024-01-11T10:06:45;23.40;;;12.40;;
76725;SDS011;65651;53.154;17.916;2024-01-11T10:09:12;24.20;;;13.60;;
76725;SDS011;65651;53.154;17.916;2024-01-11T10:11:39;24.30;;;13.90;;
76725;SDS011;65651;53.154;17.916;2024-01-11T10:14:05;22.10;;;12.30;;
76725;SDS011;65651;53.154;17.916;2024-01-11T10:16:33;26.00;;;13.60;;
76725;SDS011;65651;53.154;17.916;2024-01-11T10:19:01;28.70;;;12.10;;
76725;SDS011;65651;53.154;17.916;2024-01-11T10:21:28;23.40;;;11.40;;
76725;SDS011;65651;53.154;17.916;2024-01-11T10:23:57;22.10;;;11.70;;
76725;SDS011;65651;53.154;17.916;2024-01-11T10:26:25;19.80;;;10.50;;
76725;SDS011;65651;53.154;17.916;2024-01-11T10:28:52;18.20;;;9.20;;
76725;SDS011;65651;53.154;17.916;2024-01-11T10:31:18;18.00;;;9.70;;
76725;SDS011;65651;53.154;17.916;2024-01-11T10:33:47;14.70;;;8.70;;
76725;SDS011;65651;53.154;17.916;2024-01-11T10:36:13;19.00;;;9.60;;
76725;SDS011;65651;53.154;17.916;2024-01-11T10:38:40;16.60;;;10.00;;
76725;SDS011;65651;53.154;17.916;2024-01-11T10:41:08;16.80;;;9.20;;
76725;SDS011;65651;53.154;17.916;2024-01-11T10:43:38;15.10;;;9.20;;
76725;SDS011;65651;53.154;17.916;2024-01-11T10:46:08;19.70;;;9.70;;
76725;SDS011;65651;53.154;17.916;2024-01-11T10:48:39;18.80;;;10.10;;
76725;SDS011;65651;53.154;17.916;2024-01-11T10:51:10;12.80;;;7.40;;
76725;SDS011;65651;53.154;17.916;2024-01-11T10:53:46;14.70;;;7.70;;
76725;SDS011;65651;53.154;17.916;2024-01-11T10:56:14;16.20;;;8.30;;
76725;SDS011;65651;53.154;17.916;2024-01-11T10:58:44;13.10;;;7.70;;
76725;SDS011;65651;53.154;17.916;2024-01-11T11:01:12;13.10;;;7.90;;
76725;SDS011;65651;53.154;17.916;2024-01-11T11:03:40;14.40;;;8.30;;
76725;SDS011;65651;53.154;17.916;2024-01-11T11:06:10;13.70;;;7.80;;
76725;SDS011;65651;53.154;17.916;2024-01-11T11:08:38;14.50;;;8.00;;
76725;SDS011;65651;53.154;17.916;2024-01-11T11:11:06;12.80;;;8.10;;
76725;SDS011;65651;53.154;17.916;2024-01-11T11:13:34;12.40;;;7.00;;
76725;SDS011;65651;53.154;17.916;2024-01-11T11:16:02;13.10;;;7.10;;
76725;SDS011;65651;53.154;17.916;2024-01-11T11:18:32;17.80;;;8.70;;
76725;SDS011;65651;53.154;17.916;2024-01-11T11:21:01;15.60;;;8.40;;
76725;SDS011;65651;53.154;17.916;2024-01-11T11:23:35;12.10;;;7.90;;
76725;SDS011;65651;53.154;17.916;2024-01-11T11:26:05;16.10;;;8.90;;
76725;SDS011;65651;53.154;17.916;2024-01-11T11:28:34;17.20;;;9.30;;
76725;SDS011;65651;53.154;17.916;2024-01-11T11:31:01;17.10;;;9.50;;
76725;SDS011;65651;53.154;17.916;2024-01-11T11:33:31;14.30;;;7.50;;
76725;SDS011;65651;53.154;17.916;2024-01-11T11:35:58;13.50;;;7.90;;
76725;SDS011;65651;53.154;17.916;2024-01-11T11:38:28;13.70;;;7.90;;
76725;SDS011;65651;53.154;17.916;2024-01-11T11:40:57;14.90;;;8.50;;
76725;SDS011;65651;53.154;17.916;2024-01-11T11:43:26;11.20;;;6.90;;
76725;SDS011;65651;53.154;17.916;2024-01-11T11:45:54;15.20;;;8.80;;
76725;SDS011;65651;53.154;17.916;2024-01-11T11:53:35;18.10;;;9.00;;
76725;SDS011;65651;53.154;17.916;2024-01-11T11:56:03;15.70;;;8.70;;
76725;SDS011;65651;53.154;17.916;2024-01-11T11:58:31;15.10;;;8.30;;
76725;SDS011;65651;53.154;17.916;2024-01-11T12:00:59;21.40;;;11.50;;
76725;SDS011;65651;53.154;17.916;2024-01-11T12:03:28;16.90;;;9.80;;
76725;SDS011;65651;53.154;17.916;2024-01-11T12:05:58;14.30;;;10.10;;
76725;SDS011;65651;53.154;17.916;2024-01-11T12:08:25;15.50;;;9.00;;
76725;SDS011;65651;53.154;17.916;2024-01-11T12:10:53;16.80;;;9.30;;
76725;SDS011;65651;53.154;17.916;2024-01-11T12:13:20;14.30;;;7.90;;
76725;SDS011;65651;53.154;17.916;2024-01-11T12:15:47;17.80;;;9.30;;
76725;SDS011;65651;53.154;17.916;2024-01-11T12:18:14;14.20;;;7.90;;
76725;SDS011;65651;53.154;17.916;2024-01-11T12:20:41;11.70;;;7.80;;
76725;SDS011;65651;53.154;17.916;2024-01-11T12:23:08;12.60;;;7.70;;
76725;SDS011;65651;53.154;17.916;2024-01-11T12:25:36;14.30;;;9.00;;
76725;SDS011;65651;53.154;17.916;2024-01-11T12:28:03;12.90;;;7.10;;
76725;SDS011;65651;53.154;17.916;2024-01-11T12:30:32;11.30;;;6.90;;
76725;SDS011;65651;53.154;17.916;2024-01-11T12:32:59;12.50;;;7.20;;
76725;SDS011;65651;53.154;17.916;2024-01-11T12:35:30;13.80;;;7.70;;
76725;SDS011;65651;53.154;17.916;2024-01-11T12:37:58;8.70;;;5.20;;
76725;SDS011;65651;53.154;17.916;2024-01-11T12:40:31;7.30;;;4.50;;
76725;SDS011;65651;53.154;17.916;2024-01-11T12:43:00;7.40;;;4.30;;
76725;SDS011;65651;53.154;17.916;2024-01-11T12:45:27;11.60;;;6.30;;
76725;SDS011;65651;53.154;17.916;2024-01-11T12:47:55;13.40;;;6.80;;
76725;SDS011;65651;53.154;17.916;2024-01-11T12:50:22;11.90;;;6.10;;
76725;SDS011;65651;53.154;17.916;2024-01-11T12:53:06;8.40;;;4.60;;
76725;SDS011;65651;53.154;17.916;2024-01-11T12:55:34;18.00;;;9.10;;
76725;SDS011;65651;53.154;17.916;2024-01-11T12:58:05;19.60;;;12.30;;
76725;SDS011;65651;53.154;17.916;2024-01-11T13:00:38;12.80;;;8.00;;
76725;SDS011;65651;53.154;17.916;2024-01-11T13:03:05;9.80;;;6.60;;
76725;SDS011;65651;53.154;17.916;2024-01-11T13:05:32;16.00;;;7.20;;
76725;SDS011;65651;53.154;17.916;2024-01-11T13:08:01;12.40;;;7.50;;
76725;SDS011;65651;53.154;17.916;2024-01-11T13:10:32;11.40;;;7.70;;
76725;SDS011;65651;53.154;17.916;2024-01-11T13:12:58;14.30;;;7.70;;
76725;SDS011;65651;53.154;17.916;2024-01-11T13:15:26;19.70;;;9.20;;
76725;SDS011;65651;53.154;17.916;2024-01-11T13:17:52;20.40;;;11.30;;
76725;SDS011;65651;53.154;17.916;2024-01-11T13:20:19;32.40;;;17.30;;
76725;SDS011;65651;53.154;17.916;2024-01-11T13:22:46;19.30;;;11.20;;
76725;SDS011;65651;53.154;17.916;2024-01-11T13:25:12;19.80;;;10.30;;
76725;SDS011;65651;53.154;17.916;2024-01-11T13:27:39;15.90;;;7.60;;
76725;SDS011;65651;53.154;17.916;2024-01-11T13:30:06;21.40;;;13.60;;
76725;SDS011;65651;53.154;17.916;2024-01-11T13:32:37;33.20;;;19.10;;
76725;SDS011;65651;53.154;17.916;2024-01-11T13:35:03;15.60;;;10.70;;
76725;SDS011;65651;53.154;17.916;2024-01-11T13:37:31;14.40;;;8.50;;
76725;SDS011;65651;53.154;17.916;2024-01-11T13:39:58;17.30;;;8.80;;
76725;SDS011;65651;53.154;17.916;2024-01-11T13:42:24;18.40;;;10.90;;
76725;SDS011;65651;53.154;17.916;2024-01-11T13:44:51;30.50;;;17.30;;
76725;SDS011;65651;53.154;17.916;2024-01-11T13:47:18;34.50;;;17.10;;
76725;SDS011;65651;53.154;17.916;2024-01-11T13:49:45;26.90;;;13.80;;
76725;SDS011;65651;53.154;17.916;2024-01-11T13:52:12;30.70;;;16.50;;
76725;SDS011;65651;53.154;17.916;2024-01-11T13:54:38;29.20;;;16.90;;
76725;SDS011;65651;53.154;17.916;2024-01-11T13:57:05;16.40;;;9.70;;
76725;SDS011;65651;53.154;17.916;2024-01-11T13:59:31;20.20;;;10.50;;
76725;SDS011;65651;53.154;17.916;2024-01-11T14:02:02;22.10;;;9.40;;
76725;SDS011;65651;53.154;17.916;2024-01-11T14:04:29;13.60;;;8.10;;
76725;SDS011;65651;53.154;17.916;2024-01-11T14:06:56;15.90;;;8.50;;
76725;SDS011;65651;53.154;17.916;2024-01-11T14:09:23;13.70;;;7.60;;
76725;SDS011;65651;53.154;17.916;2024-01-11T14:11:50;11.10;;;6.20;;
76725;SDS011;65651;53.154;17.916;2024-01-11T14:14:16;18.00;;;10.10;;
76725;SDS011;65651;53.154;17.916;2024-01-11T14:16:44;9.40;;;5.20;;
76725;SDS011;65651;53.154;17.916;2024-01-11T14:19:11;10.90;;;6.10;;
76725;SDS011;65651;53.154;17.916;2024-01-11T14:21:38;11.30;;;6.10;;
76725;SDS011;65651;53.154;17.916;2024-01-11T14:24:05;12.90;;;6.20;;
76725;SDS011;65651;53.154;17.916;2024-01-11T14:26:31;13.40;;;6.40;;